sensor_id;sensor_type;location;lat;lon;timestamp;P1;durP1;ratioP1;P2;durP2;ratioP2
19107;SDS011;9686;48.832;9.126;2024-01-10T00:02:13;3.67;;;3.37;;
19107;SDS011;9686;48.832;9.126;2024-01-10T00:04:38;8.10;;;5.47;;
19107;SDS011;9686;48.832;9.126;2024-01-10T00:07:04;6.27;;;4.73;;
19107;SDS011;9686;48.832;9.126;2024-01-10T00:09:30;5.20;;;4.50;;
19107;SDS011;9686;48.832;9.126;2024-01-10T00:11:55;5.17;;;4.67;;
19107;SDS011;9686;48.832;9.126;2024-01-10T00:14:20;7.50;;;4.30;;
19107;SDS011;9686;48.832;9.126;2024-01-10T00:16:46;6.97;;;6.23;;
19107;SDS011;9686;48.832;9.126;2024-01-10T00:19:11;4.47;;;4.07;;
19107;SDS011;9686;48.832;9.126;2024-01-10T00:21:36;8.57;;;4.47;;
19107;SDS011;9686;48.832;9.126;2024-01-10T00:24:02;5.27;;;4.77;;
19107;SDS011;9686;48.832;9.126;2024-01-10T00:26:27;9.40;;;5.53;;
19107;SDS011;9686;48.832;9.126;2024-01-10T00:28:52;6.10;;;4.13;;
19107;SDS011;9686;48.832;9.126;2024-01-10T00:31:17;8.67;;;4.30;;
19107;SDS011;9686;48.832;9.126;2024-01-10T00:33:43;12.10;;;5.33;;
19107;SDS011;9686;48.832;9.126;2024-01-10T00:36:08;11.33;;;6.13;;
19107;SDS011;9686;48.832;9.126;2024-01-10T00:38:33;7.30;;;6.27;;
19107;SDS011;9686;48.832;9.126;2024-01-10T00:40:59;7.73;;;5.80;;
19107;SDS011;9686;48.832;9.126;2024-01-10T00:43:24;8.50;;;5.70;;
19107;SDS011;9686;48.832;9.126;2024-01-10T00:45:50;7.60;;;5.13;;
19107;SDS011;9686;48.832;9.126;2024-01-10T00:48:15;12.67;;;4.17;;
19107;SDS011;9686;48.832;9.126;2024-01-10T00:50:42;6.33;;;5.10;;
19107;SDS011;9686;48.832;9.126;2024-01-10T00:53:09;9.30;;;6.73;;
19107;SDS011;9686;48.832;9.126;2024-01-10T00:55:34;7.73;;;5.87;;
19107;SDS011;9686;48.832;9.126;2024-01-10T00:57:59;11.07;;;6.93;;
19107;SDS011;9686;48.832;9.126;2024-01-10T01:00:25;4.90;;;4.50;;
19107;SDS011;9686;48.832;9.126;2024-01-10T01:02:50;7.60;;;5.67;;
19107;SDS011;9686;48.832;9.126;2024-01-10T01:05:16;10.93;;;7.20;;
19107;SDS011;9686;48.832;9.126;2024-01-10T01:07:41;4.27;;;3.63;;
19107;SDS011;9686;48.832;9.126;2024-01-10T01:10:06;6.27;;;5.60;;
19107;SDS011;9686;48.832;9.126;2024-01-10T01:12:33;6.93;;;5.80;;
19107;SDS011;9686;48.832;9.126;2024-01-10T01:14:59;9.70;;;5.57;;
19107;SDS011;9686;48.832;9.126;2024-01-10T01:17:24;9.37;;;4.50;;
19107;SDS011;9686;48.832;9.126;2024-01-10T01:19:49;5.13;;;4.63;;
19107;SDS011;9686;48.832;9.126;2024-01-10T01:22:15;8.93;;;4.70;;
19107;SDS011;9686;48.832;9.126;2024-01-10T01:24:40;15.23;;;5.77;;
19107;SDS011;9686;48.832;9.126;2024-01-10T01:27:05;7.07;;;4.97;;
19107;SDS011;9686;48.832;9.126;2024-01-10T01:29:31;6.47;;;5.97;;
19107;SDS011;9686;48.832;9.126;2024-01-10T01:31:56;7.80;;;4.97;;
19107;SDS011;9686;48.832;9.126;2024-01-10T01:34:22;3.87;;;3.50;;
19107;SDS011;9686;48.832;9.126;2024-01-10T01:36:48;10.37;;;6.23;;
19107;SDS011;9686;48.832;9.126;2024-01-10T01:39:16;4.87;;;3.43;;
19107;SDS011;9686;48.832;9.126;2024-01-10T01:41:41;8.20;;;4.90;;
19107;SDS011;9686;48.832;9.126;2024-01-10T01:44:06;4.60;;;4.20;;
19107;SDS011;9686;48.832;9.126;2024-01-10T01:46:32;8.87;;;6.33;;
19107;SDS011;9686;48.832;9.126;2024-01-10T01:48:58;6.53;;;4.23;;
19107;SDS011;9686;48.832;9.126;2024-01-10T01:51:24;18.23;;;5.20;;
19107;SDS011;9686;48.832;9.126;2024-01-10T01:53:52;6.83;;;4.53;;
19107;SDS011;9686;48.832;9.126;2024-01-10T01:56:18;3.00;;;2.80;;
19107;SDS011;9686;48.832;9.126;2024-01-10T01:58:44;14.63;;;4.30;;
19107;SDS011;9686;48.832;9.126;2024-01-10T02:01:10;4.17;;;3.77;;
19107;SDS011;9686;48.832;9.126;2024-01-10T02:03:36;6.47;;;4.27;;
19107;SDS011;9686;48.832;9.126;2024-01-10T02:06:02;3.73;;;2.70;;
19107;SDS011;9686;48.832;9.126;2024-01-10T02:08:29;7.03;;;5.07;;
19107;SDS011;9686;48.832;9.126;2024-01-10T02:10:56;3.60;;;2.90;;
19107;SDS011;9686;48.832;9.126;2024-01-10T02:13:21;4.33;;;3.47;;
19107;SDS011;9686;48.832;9.126;2024-01-10T02:15:47;9.10;;;5.37;;
19107;SDS011;9686;48.832;9.126;2024-01-10T02:18:12;4.63;;;3.97;;
19107;SDS011;9686;48.832;9.126;2024-01-10T02:20:39;4.27;;;3.40;;
19107;SDS011;9686;48.832;9.126;2024-01-10T02:23:04;9.73;;;4.37;;
19107;SDS011;9686;48.832;9.126;2024-01-10T02:25:29;7.60;;;4.13;;
19107;SDS011;9686;48.832;9.126;2024-01-10T02:27:55;8.30;;;3.57;;
19107;SDS011;9686;48.832;9.126;2024-01-10T02:30:20;4.67;;;2.90;;
19107;SDS011;9686;48.832;9.126;2024-01-10T02:32:45;14.27;;;4.00;;
19107;SDS011;9686;48.832;9.126;2024-01-10T02:35:11;9.23;;;5.33;;
19107;SDS011;9686;48.832;9.126;2024-01-10T02:37:36;5.90;;;3.23;;
19107;SDS011;9686;48.832;9.126;2024-01-10T02:40:01;3.90;;;2.53;;
19107;SDS011;9686;48.832;9.126;2024-01-10T02:42:27;5.57;;;3.37;;
19107;SDS011;9686;48.832;9.126;2024-01-10T02:44:53;5.50;;;3.97;;
19107;SDS011;9686;48.832;9.126;2024-01-10T02:47:19;9.63;;;5.53;;
19107;SDS011;9686;48.832;9.126;2024-01-10T02:49:44;7.30;;;3.80;;
19107;SDS011;9686;48.832;9.126;2024-01-10T02:52:09;5.30;;;3.37;;
19107;SDS011;9686;48.832;9.126;2024-01-10T02:54:35;4.97;;;3.50;;
19107;SDS011;9686;48.832;9.126;2024-01-10T02:57:00;5.87;;;3.97;;
19107;SDS011;9686;48.832;9.126;2024-01-10T02:59:25;14.17;;;2.80;;
19107;SDS011;9686;48.832;9.126;2024-01-10T03:01:50;4.63;;;3.73;;
19107;SDS011;9686;48.832;9.126;2024-01-10T03:04:16;4.47;;;2.93;;
19107;SDS011;9686;48.832;9.126;2024-01-10T03:06:41;3.93;;;3.63;;
19107;SDS011;9686;48.832;9.126;2024-01-10T03:09:06;7.10;;;3.37;;
19107;SDS011;9686;48.832;9.126;2024-01-10T03:11:32;11.17;;;3.00;;
19107;SDS011;9686;48.832;9.126;2024-01-10T03:14:09;4.63;;;3.87;;
19107;SDS011;9686;48.832;9.126;2024-01-10T03:16:36;3.40;;;3.00;;
19107;SDS011;9686;48.832;9.126;2024-01-10T03:19:01;4.20;;;2.30;;
19107;SDS011;9686;48.832;9.126;2024-01-10T03:21:27;4.37;;;3.73;;
19107;SDS011;9686;48.832;9.126;2024-01-10T03:23:56;6.70;;;5.10;;
19107;SDS011;9686;48.832;9.126;2024-01-10T03:26:22;4.87;;;4.37;;
19107;SDS011;9686;48.832;9.126;2024-01-10T03:28:48;5.07;;;4.43;;
19107;SDS011;9686;48.832;9.126;2024-01-10T03:31:13;8.00;;;3.10;;
19107;SDS011;9686;48.832;9.126;2024-01-10T03:33:39;4.00;;;3.50;;
19107;SDS011;9686;48.832;9.126;2024-01-10T03:36:05;9.07;;;4.30;;
19107;SDS011;9686;48.832;9.126;2024-01-10T03:38:31;10.90;;;4.43;;
19107;SDS011;9686;48.832;9.126;2024-01-10T03:40:56;7.30;;;5.30;;
19107;SDS011;9686;48.832;9.126;2024-01-10T03:43:22;4.63;;;3.13;;
19107;SDS011;9686;48.832;9.126;2024-01-10T03:45:47;4.10;;;3.47;;
19107;SDS011;9686;48.832;9.126;2024-01-10T03:48:12;5.40;;;3.27;;
19107;SDS011;9686;48.832;9.126;2024-01-10T03:50:38;5.43;;;4.80;;
19107;SDS011;9686;48.832;9.126;2024-01-10T03:53:03;3.53;;;2.90;;
19107;SDS011;9686;48.832;9.126;2024-01-10T03:55:28;13.13;;;4.77;;
19107;SDS011;9686;48.832;9.126;2024-01-10T03:57:54;3.83;;;2.93;;
19107;SDS011;9686;48.832;9.126;2024-01-10T04:00:20;4.57;;;3.40;;
19107;SDS011;9686;48.832;9.126;2024-01-10T04:02:46;4.87;;;3.53;;
19107;SDS011;9686;48.832;9.126;2024-01-10T04:05:11;4.60;;;3.67;;
19107;SDS011;9686;48.832;9.126;2024-01-10T04:07:38;6.63;;;5.50;;
19107;SDS011;9686;48.832;9.126;2024-01-10T04:10:06;2.77;;;2.33;;
19107;SDS011;9686;48.832;9.126;2024-01-10T04:12:35;4.00;;;3.00;;
19107;SDS011;9686;48.832;9.126;2024-01-10T04:15:01;8.80;;;3.20;;
19107;SDS011;9686;48.832;9.126;2024-01-10T04:17:26;3.77;;;3.37;;
19107;SDS011;9686;48.832;9.126;2024-01-10T04:19:51;5.93;;;4.60;;
19107;SDS011;9686;48.832;9.126;2024-01-10T04:22:16;2.97;;;2.67;;
19107;SDS011;9686;48.832;9.126;2024-01-10T04:24:42;3.87;;;3.37;;
19107;SDS011;9686;48.832;9.126;2024-01-10T04:27:07;3.30;;;3.10;;
19107;SDS011;9686;48.832;9.126;2024-01-10T04:29:32;7.43;;;5.17;;
19107;SDS011;9686;48.832;9.126;2024-01-10T04:31:58;5.10;;;3.63;;
19107;SDS011;9686;48.832;9.126;2024-01-10T04:34:23;3.87;;;3.60;;
19107;SDS011;9686;48.832;9.126;2024-01-10T04:36:49;6.13;;;4.63;;
19107;SDS011;9686;48.832;9.126;2024-01-10T04:39:15;3.60;;;3.33;;
19107;SDS011;9686;48.832;9.126;2024-01-10T04:41:40;5.13;;;3.90;;
19107;SDS011;9686;48.832;9.126;2024-01-10T04:44:05;5.47;;;4.00;;
19107;SDS011;9686;48.832;9.126;2024-01-10T04:46:30;8.23;;;4.20;;
19107;SDS011;9686;48.832;9.126;2024-01-10T04:48:56;3.17;;;2.93;;
19107;SDS011;9686;48.832;9.126;2024-01-10T04:51:21;5.87;;;4.47;;
19107;SDS011;9686;48.832;9.126;2024-01-10T04:53:47;3.20;;;2.97;;
19107;SDS011;9686;48.832;9.126;2024-01-10T04:56:12;8.77;;;4.27;;
19107;SDS011;9686;48.832;9.126;2024-01-10T04:58:38;7.27;;;2.90;;
19107;SDS011;9686;48.832;9.126;2024-01-10T05:01:03;5.27;;;3.73;;
19107;SDS011;9686;48.832;9.126;2024-01-10T05:03:28;5.13;;;4.63;;
19107;SDS011;9686;48.832;9.126;2024-01-10T05:05:54;3.77;;;3.20;;
19107;SDS011;9686;48.832;9.126;2024-01-10T05:08:19;4.37;;;3.73;;
19107;SDS011;9686;48.832;9.126;2024-01-10T05:10:47;6.57;;;4.70;;
19107;SDS011;9686;48.832;9.126;2024-01-10T05:13:12;4.53;;;3.73;;
19107;SDS011;9686;48.832;9.126;2024-01-10T05:15:38;7.57;;;3.20;;
19107;SDS011;9686;48.832;9.126;2024-01-10T05:18:03;4.90;;;4.50;;
19107;SDS011;9686;48.832;9.126;2024-01-10T05:20:28;3.03;;;2.73;;
19107;SDS011;9686;48.832;9.126;2024-01-10T05:22:54;4.47;;;4.03;;
19107;SDS011;9686;48.832;9.126;2024-01-10T05:25:23;7.60;;;4.17;;
19107;SDS011;9686;48.832;9.126;2024-01-10T05:27:48;4.27;;;3.17;;
19107;SDS011;9686;48.832;9.126;2024-01-10T05:30:14;6.70;;;4.27;;
19107;SDS011;9686;48.832;9.126;2024-01-10T05:32:39;4.17;;;3.87;;
19107;SDS011;9686;48.832;9.126;2024-01-10T05:35:05;6.63;;;4.50;;
19107;SDS011;9686;48.832;9.126;2024-01-10T05:37:31;11.60;;;4.40;;
19107;SDS011;9686;48.832;9.126;2024-01-10T05:39:56;4.70;;;4.30;;
19107;SDS011;9686;48.832;9.126;2024-01-10T05:42:21;5.40;;;3.67;;
19107;SDS011;9686;48.832;9.126;2024-01-10T05:44:47;6.20;;;4.03;;
19107;SDS011;9686;48.832;9.126;2024-01-10T05:47:13;5.63;;;3.93;;
19107;SDS011;9686;48.832;9.126;2024-01-10T05:49:38;6.40;;;4.07;;
19107;SDS011;9686;48.832;9.126;2024-01-10T05:52:04;5.57;;;5.07;;
19107;SDS011;9686;48.832;9.126;2024-01-10T05:54:29;10.87;;;4.13;;
19107;SDS011;9686;48.832;9.126;2024-01-10T05:56:54;5.77;;;4.57;;
19107;SDS011;9686;48.832;9.126;2024-01-10T05:59:20;5.37;;;3.87;;
19107;SDS011;9686;48.832;9.126;2024-01-10T06:01:45;5.53;;;3.87;;
19107;SDS011;9686;48.832;9.126;2024-01-10T06:04:10;4.00;;;3.53;;
19107;SDS011;9686;48.832;9.126;2024-01-10T06:06:35;3.43;;;3.20;;
19107;SDS011;9686;48.832;9.126;2024-01-10T06:09:01;4.37;;;3.97;;
19107;SDS011;9686;48.832;9.126;2024-01-10T06:11:27;5.73;;;4.87;;
19107;SDS011;9686;48.832;9.126;2024-01-10T06:13:54;5.93;;;4.40;;
19107;SDS011;9686;48.832;9.126;2024-01-10T06:16:19;6.70;;;4.10;;
19107;SDS011;9686;48.832;9.126;2024-01-10T06:18:45;4.53;;;3.90;;
19107;SDS011;9686;48.832;9.126;2024-01-10T06:21:10;14.30;;;4.53;;
19107;SDS011;9686;48.832;9.126;2024-01-10T06:23:35;3.47;;;3.17;;
19107;SDS011;9686;48.832;9.126;2024-01-10T06:26:01;14.83;;;4.10;;
19107;SDS011;9686;48.832;9.126;2024-01-10T06:28:27;6.43;;;5.60;;
19107;SDS011;9686;48.832;9.126;2024-01-10T06:30:52;4.30;;;3.90;;
19107;SDS011;9686;48.832;9.126;2024-01-10T06:33:17;4.80;;;4.40;;
19107;SDS011;9686;48.832;9.126;2024-01-10T06:35:44;5.10;;;3.27;;
19107;SDS011;9686;48.832;9.126;2024-01-10T06:38:10;9.27;;;4.30;;
19107;SDS011;9686;48.832;9.126;2024-01-10T06:40:36;10.13;;;5.63;;
19107;SDS011;9686;48.832;9.126;2024-01-10T06:43:02;5.20;;;3.77;;
19107;SDS011;9686;48.832;9.126;2024-01-10T06:45:27;6.93;;;4.27;;
19107;SDS011;9686;48.832;9.126;2024-01-10T06:47:53;9.37;;;4.03;;
19107;SDS011;9686;48.832;9.126;2024-01-10T06:50:18;6.90;;;4.13;;
19107;SDS011;9686;48.832;9.126;2024-01-10T06:52:45;7.13;;;4.60;;
19107;SDS011;9686;48.832;9.126;2024-01-10T06:55:10;3.77;;;3.17;;
19107;SDS011;9686;48.832;9.126;2024-01-10T06:57:36;4.10;;;3.80;;
19107;SDS011;9686;48.832;9.126;2024-01-10T07:00:01;3.57;;;2.63;;
19107;SDS011;9686;48.832;9.126;2024-01-10T07:02:31;5.50;;;4.80;;
19107;SDS011;9686;48.832;9.126;2024-01-10T07:04:57;4.30;;;3.90;;
19107;SDS011;9686;48.832;9.126;2024-01-10T07:07:22;4.50;;;3.97;;
19107;SDS011;9686;48.832;9.126;2024-01-10T07:09:47;5.07;;;3.57;;
19107;SDS011;9686;48.832;9.126;2024-01-10T07:12:13;6.57;;;4.23;;
19107;SDS011;9686;48.832;9.126;2024-01-10T07:14:38;7.90;;;3.60;;
19107;SDS011;9686;48.832;9.126;2024-01-10T07:17:03;4.20;;;3.80;;
19107;SDS011;9686;48.832;9.126;2024-01-10T07:19:29;7.83;;;4.53;;
19107;SDS011;9686;48.832;9.126;2024-01-10T07:21:54;4.87;;;4.13;;
19107;SDS011;9686;48.832;9.126;2024-01-10T07:24:20;5.53;;;4.93;;
19107;SDS011;9686;48.832;9.126;2024-01-10T07:26:45;9.07;;;4.87;;
19107;SDS011;9686;48.832;9.126;2024-01-10T07:29:11;9.23;;;5.47;;
19107;SDS011;9686;48.832;9.126;2024-01-10T07:31:36;3.63;;;3.40;;
19107;SDS011;9686;48.832;9.126;2024-01-10T07:34:01;4.67;;;3.53;;
19107;SDS011;9686;48.832;9.126;2024-01-10T07:36:29;6.13;;;3.97;;
19107;SDS011;9686;48.832;9.126;2024-01-10T07:38:58;5.03;;;3.53;;
19107;SDS011;9686;48.832;9.126;2024-01-10T07:41:23;4.60;;;4.20;;
19107;SDS011;9686;48.832;9.126;2024-01-10T07:43:49;9.63;;;5.33;;
19107;SDS011;9686;48.832;9.126;2024-01-10T07:46:15;5.77;;;5.00;;
19107;SDS011;9686;48.832;9.126;2024-01-10T07:48:40;3.97;;;3.50;;
19107;SDS011;9686;48.832;9.126;2024-01-10T07:51:05;20.23;;;3.73;;
19107;SDS011;9686;48.832;9.126;2024-01-10T07:53:31;8.73;;;4.77;;
19107;SDS011;9686;48.832;9.126;2024-01-10T07:55:56;6.77;;;2.67;;
19107;SDS011;9686;48.832;9.126;2024-01-10T07:58:21;5.37;;;4.57;;
19107;SDS011;9686;48.832;9.126;2024-01-10T08:00:47;7.47;;;6.63;;
19107;SDS011;9686;48.832;9.126;2024-01-10T08:03:12;5.90;;;3.93;;
19107;SDS011;9686;48.832;9.126;2024-01-10T08:05:37;6.67;;;5.20;;
19107;SDS011;9686;48.832;9.126;2024-01-10T08:08:03;4.77;;;4.37;;
19107;SDS011;9686;48.832;9.126;2024-01-10T08:10:28;4.83;;;3.97;;
19107;SDS011;9686;48.832;9.126;2024-01-10T08:12:54;3.67;;;3.37;;
19107;SDS011;9686;48.832;9.126;2024-01-10T08:15:19;5.77;;;4.97;;
19107;SDS011;9686;48.832;9.126;2024-01-10T08:17:45;8.30;;;6.23;;
19107;SDS011;9686;48.832;9.126;2024-01-10T08:20:10;5.57;;;4.30;;
19107;SDS011;9686;48.832;9.126;2024-01-10T08:22:36;8.57;;;6.30;;
19107;SDS011;9686;48.832;9.126;2024-01-10T08:25:02;6.90;;;5.33;;
19107;SDS011;9686;48.832;9.126;2024-01-10T08:27:28;7.27;;;4.57;;
19107;SDS011;9686;48.832;9.126;2024-01-10T08:29:53;5.60;;;5.10;;
19107;SDS011;9686;48.832;9.126;2024-01-10T08:32:18;6.83;;;5.30;;
19107;SDS011;9686;48.832;9.126;2024-01-10T08:34:46;13.03;;;3.93;;
19107;SDS011;9686;48.832;9.126;2024-01-10T08:37:12;5.00;;;4.33;;
19107;SDS011;9686;48.832;9.126;2024-01-10T08:39:38;6.33;;;4.47;;
19107;SDS011;9686;48.832;9.126;2024-01-10T08:42:03;4.57;;;4.17;;
19107;SDS011;9686;48.832;9.126;2024-01-10T08:44:29;9.73;;;6.40;;
19107;SDS011;9686;48.832;9.126;2024-01-10T08:46:54;6.77;;;4.97;;
19107;SDS011;9686;48.832;9.126;2024-01-10T08:49:19;8.23;;;6.93;;
19107;SDS011;9686;48.832;9.126;2024-01-10T08:51:45;7.50;;;5.23;;
19107;SDS011;9686;48.832;9.126;2024-01-10T08:54:11;10.70;;;5.20;;
19107;SDS011;9686;48.832;9.126;2024-01-10T08:56:41;11.33;;;6.37;;
19107;SDS011;9686;48.832;9.126;2024-01-10T08:59:09;21.37;;;5.73;;
19107;SDS011;9686;48.832;9.126;2024-01-10T09:01:34;5.83;;;4.00;;
19107;SDS011;9686;48.832;9.126;2024-01-10T09:03:59;10.83;;;5.40;;
19107;SDS011;9686;48.832;9.126;2024-01-10T09:06:25;5.40;;;4.27;;
19107;SDS011;9686;48.832;9.126;2024-01-10T09:08:50;11.40;;;4.97;;
19107;SDS011;9686;48.832;9.126;2024-01-10T09:11:15;6.63;;;5.80;;
19107;SDS011;9686;48.832;9.126;2024-01-10T09:13:40;9.20;;;6.10;;
19107;SDS011;9686;48.832;9.126;2024-01-10T09:16:06;6.30;;;5.70;;
19107;SDS011;9686;48.832;9.126;2024-01-10T09:18:31;7.77;;;5.10;;
19107;SDS011;9686;48.832;9.126;2024-01-10T09:20:57;7.23;;;4.50;;
19107;SDS011;9686;48.832;9.126;2024-01-10T09:23:22;7.30;;;6.10;;
19107;SDS011;9686;48.832;9.126;2024-01-10T09:25:47;6.50;;;4.10;;
19107;SDS011;9686;48.832;9.126;2024-01-10T09:28:13;6.10;;;5.27;;
19107;SDS011;9686;48.832;9.126;2024-01-10T09:30:38;7.10;;;5.37;;
19107;SDS011;9686;48.832;9.126;2024-01-10T09:33:04;8.23;;;6.07;;
19107;SDS011;9686;48.832;9.126;2024-01-10T09:35:29;7.20;;;6.47;;
19107;SDS011;9686;48.832;9.126;2024-01-10T09:37:54;7.77;;;5.97;;
19107;SDS011;9686;48.832;9.126;2024-01-10T09:40:19;8.77;;;6.67;;
19107;SDS011;9686;48.832;9.126;2024-01-10T09:42:52;10.00;;;7.17;;
19107;SDS011;9686;48.832;9.126;2024-01-10T09:45:19;10.07;;;5.47;;
19107;SDS011;9686;48.832;9.126;2024-01-10T09:47:48;19.57;;;7.20;;
19107;SDS011;9686;48.832;9.126;2024-01-10T09:50:14;7.07;;;6.20;;
19107;SDS011;9686;48.832;9.126;2024-01-10T09:52:41;7.83;;;5.83;;
19107;SDS011;9686;48.832;9.126;2024-01-10T09:55:14;7.40;;;5.77;;
19107;SDS011;9686;48.832;9.126;2024-01-10T09:57:41;8.97;;;6.60;;
19107;SDS011;9686;48.832;9.126;2024-01-10T10:00:08;5.20;;;4.77;;
19107;SDS011;9686;48.832;9.126;2024-01-10T10:02:35;8.20;;;6.10;;
19107;SDS011;9686;48.832;9.126;2024-01-10T10:05:03;11.00;;;5.90;;
19107;SDS011;9686;48.832;9.126;2024-01-10T10:07:42;7.07;;;5.77;;
19107;SDS011;9686;48.832;9.126;2024-01-10T10:10:11;8.77;;;5.80;;
19107;SDS011;9686;48.832;9.126;2024-01-10T10:12:47;16.60;;;6.13;;
19107;SDS011;9686;48.832;9.126;2024-01-10T10:15:15;11.77;;;6.70;;
19107;SDS011;9686;48.832;9.126;2024-01-10T10:17:43;11.33;;;6.17;;
19107;SDS011;9686;48.832;9.126;2024-01-10T10:20:22;8.33;;;5.97;;
19107;SDS011;9686;48.832;9.126;2024-01-10T10:25:37;8.37;;;7.10;;
19107;SDS011;9686;48.832;9.126;2024-01-10T10:28:08;13.23;;;7.77;;
19107;SDS011;9686;48.832;9.126;2024-01-10T10:30:33;7.90;;;5.77;;
19107;SDS011;9686;48.832;9.126;2024-01-10T10:32:59;13.30;;;6.03;;
19107;SDS011;9686;48.832;9.126;2024-01-10T10:35:24;9.57;;;6.80;;
19107;SDS011;9686;48.832;9.126;2024-01-10T10:37:50;10.30;;;6.23;;
19107;SDS011;9686;48.832;9.126;2024-01-10T10:40:17;14.13;;;9.10;;
19107;SDS011;9686;48.832;9.126;2024-01-10T10:42:44;9.33;;;7.70;;
19107;SDS011;9686;48.832;9.126;2024-01-10T10:45:12;13.13;;;7.57;;
19107;SDS011;9686;48.832;9.126;2024-01-10T10:47:41;13.10;;;7.87;;
19107;SDS011;9686;48.832;9.126;2024-01-10T10:50:12;12.80;;;8.07;;
19107;SDS011;9686;48.832;9.126;2024-01-10T10:52:45;11.77;;;8.97;;
19107;SDS011;9686;48.832;9.126;2024-01-10T10:55:17;14.30;;;7.83;;
19107;SDS011;9686;48.832;9.126;2024-01-10T10:57:46;6.83;;;6.13;;
19107;SDS011;9686;48.832;9.126;2024-01-10T11:00:14;12.13;;;7.43;;
19107;SDS011;9686;48.832;9.126;2024-01-10T11:02:42;10.60;;;8.00;;
19107;SDS011;9686;48.832;9.126;2024-01-10T11:05:08;10.63;;;6.10;;
19107;SDS011;9686;48.832;9.126;2024-01-10T11:07:35;7.93;;;7.13;;
19107;SDS011;9686;48.832;9.126;2024-01-10T11:10:02;22.07;;;7.83;;
19107;SDS011;9686;48.832;9.126;2024-01-10T11:23:02;13.97;;;7.77;;
19107;SDS011;9686;48.832;9.126;2024-01-10T11:25:39;19.57;;;8.43;;
19107;SDS011;9686;48.832;9.126;2024-01-10T11:28:06;10.77;;;7.30;;
19107;SDS011;9686;48.832;9.126;2024-01-10T11:30:47;16.00;;;8.40;;
19107;SDS011;9686;48.832;9.126;2024-01-10T11:33:20;12.00;;;8.80;;
19107;SDS011;9686;48.832;9.126;2024-01-10T11:36:06;8.20;;;7.33;;
19107;SDS011;9686;48.832;9.126;2024-01-10T11:38:38;11.07;;;8.10;;
19107;SDS011;9686;48.832;9.126;2024-01-10T11:41:06;11.87;;;7.77;;
19107;SDS011;9686;48.832;9.126;2024-01-10T11:43:33;9.33;;;7.57;;
19107;SDS011;9686;48.832;9.126;2024-01-10T11:45:58;13.20;;;9.33;;
19107;SDS011;9686;48.832;9.126;2024-01-10T11:48:26;12.33;;;8.17;;
19107;SDS011;9686;48.832;9.126;2024-01-10T11:50:56;10.43;;;8.37;;
19107;SDS011;9686;48.832;9.126;2024-01-10T11:53:38;16.30;;;8.60;;
19107;SDS011;9686;48.832;9.126;2024-01-10T11:56:12;10.83;;;8.10;;
19107;SDS011;9686;48.832;9.126;2024-01-10T12:01:30;14.03;;;9.00;;
19107;SDS011;9686;48.832;9.126;2024-01-10T12:03:56;12.33;;;7.30;;
19107;SDS011;9686;48.832;9.126;2024-01-10T12:06:22;10.80;;;8.90;;
19107;SDS011;9686;48.832;9.126;2024-01-10T12:08:50;11.87;;;7.33;;
19107;SDS011;9686;48.832;9.126;2024-01-10T12:11:15;13.30;;;9.03;;
19107;SDS011;9686;48.832;9.126;2024-01-10T12:13:42;14.77;;;9.63;;
19107;SDS011;9686;48.832;9.126;2024-01-10T12:16:07;11.20;;;7.70;;
19107;SDS011;9686;48.832;9.126;2024-01-10T12:18:33;13.93;;;9.27;;
19107;SDS011;9686;48.832;9.126;2024-01-10T12:20:58;16.17;;;9.40;;
19107;SDS011;9686;48.832;9.126;2024-01-10T12:23:24;13.60;;;8.87;;
19107;SDS011;9686;48.832;9.126;2024-01-10T12:25:55;15.67;;;8.57;;
19107;SDS011;9686;48.832;9.126;2024-01-10T12:28:21;13.23;;;8.67;;
19107;SDS011;9686;48.832;9.126;2024-01-10T12:30:46;16.37;;;9.80;;
19107;SDS011;9686;48.832;9.126;2024-01-10T12:33:12;14.07;;;8.60;;
19107;SDS011;9686;48.832;9.126;2024-01-10T12:35:38;15.20;;;7.87;;
19107;SDS011;9686;48.832;9.126;2024-01-10T12:38:07;10.53;;;8.47;;
19107;SDS011;9686;48.832;9.126;2024-01-10T12:40:35;9.07;;;7.90;;
19107;SDS011;9686;48.832;9.126;2024-01-10T12:43:03;13.37;;;7.93;;
19107;SDS011;9686;48.832;9.126;2024-01-10T12:45:29;14.07;;;9.60;;
19107;SDS011;9686;48.832;9.126;2024-01-10T12:47:54;10.23;;;7.00;;
19107;SDS011;9686;48.832;9.126;2024-01-10T12:50:20;15.63;;;10.57;;
19107;SDS011;9686;48.832;9.126;2024-01-10T12:52:45;8.33;;;7.03;;
19107;SDS011;9686;48.832;9.126;2024-01-10T12:55:11;20.10;;;9.80;;
19107;SDS011;9686;48.832;9.126;2024-01-10T12:57:37;14.77;;;7.63;;
19107;SDS011;9686;48.832;9.126;2024-01-10T13:00:03;11.90;;;8.07;;
19107;SDS011;9686;48.832;9.126;2024-01-10T13:02:31;13.47;;;8.63;;
19107;SDS011;9686;48.832;9.126;2024-01-10T13:05:01;11.77;;;6.90;;
19107;SDS011;9686;48.832;9.126;2024-01-10T13:07:27;15.57;;;7.77;;
19107;SDS011;9686;48.832;9.126;2024-01-10T13:09:55;11.30;;;8.03;;
19107;SDS011;9686;48.832;9.126;2024-01-10T13:12:21;11.23;;;7.93;;
19107;SDS011;9686;48.832;9.126;2024-01-10T13:14:46;12.73;;;8.47;;
19107;SDS011;9686;48.832;9.126;2024-01-10T13:17:12;10.30;;;8.73;;
19107;SDS011;9686;48.832;9.126;2024-01-10T13:19:37;8.73;;;7.20;;
19107;SDS011;9686;48.832;9.126;2024-01-10T13:22:02;13.43;;;9.43;;
19107;SDS011;9686;48.832;9.126;2024-01-10T13:24:28;18.73;;;8.83;;
19107;SDS011;9686;48.832;9.126;2024-01-10T13:26:54;18.37;;;9.07;;
19107;SDS011;9686;48.832;9.126;2024-01-10T13:29:20;14.97;;;8.77;;
19107;SDS011;9686;48.832;9.126;2024-01-10T13:31:45;17.93;;;8.30;;
19107;SDS011;9686;48.832;9.126;2024-01-10T13:34:12;7.60;;;6.60;;
19107;SDS011;9686;48.832;9.126;2024-01-10T13:36:38;13.33;;;8.23;;
19107;SDS011;9686;48.832;9.126;2024-01-10T13:39:03;10.00;;;7.33;;
19107;SDS011;9686;48.832;9.126;2024-01-10T13:41:28;11.93;;;7.70;;
19107;SDS011;9686;48.832;9.126;2024-01-10T13:43:54;10.57;;;7.80;;
19107;SDS011;9686;48.832;9.126;2024-01-10T13:46:19;15.10;;;9.73;;
19107;SDS011;9686;48.832;9.126;2024-01-10T13:48:44;12.47;;;8.37;;
19107;SDS011;9686;48.832;9.126;2024-01-10T13:51:10;13.17;;;8.50;;
19107;SDS011;9686;48.832;9.126;2024-01-10T13:53:35;12.13;;;9.13;;
19107;SDS011;9686;48.832;9.126;2024-01-10T13:56:01;11.00;;;7.77;;
19107;SDS011;9686;48.832;9.126;2024-01-10T13:58:26;11.63;;;7.97;;
19107;SDS011;9686;48.832;9.126;2024-01-10T14:00:52;16.27;;;9.90;;
19107;SDS011;9686;48.832;9.126;2024-01-10T14:03:17;16.50;;;8.73;;
19107;SDS011;9686;48.832;9.126;2024-01-10T14:05:42;15.77;;;8.37;;
19107;SDS011;9686;48.832;9.126;2024-01-10T14:08:08;15.50;;;9.43;;
19107;SDS011;9686;48.832;9.126;2024-01-10T14:10:36;9.13;;;7.10;;
19107;SDS011;9686;48.832;9.126;2024-01-10T14:13:01;11.57;;;8.57;;
19107;SDS011;9686;48.832;9.126;2024-01-10T14:15:28;10.97;;;8.53;;
19107;SDS011;9686;48.832;9.126;2024-01-10T14:17:54;11.83;;;10.00;;
19107;SDS011;9686;48.832;9.126;2024-01-10T14:20:21;12.43;;;9.27;;
19107;SDS011;9686;48.832;9.126;2024-01-10T14:22:47;19.90;;;9.03;;
19107;SDS011;9686;48.832;9.126;2024-01-10T14:25:12;16.47;;;9.87;;
19107;SDS011;9686;48.832;9.126;2024-01-10T14:27:38;17.77;;;9.93;;
19107;SDS011;9686;48.832;9.126;2024-01-10T14:30:04;12.80;;;9.23;;
19107;SDS011;9686;48.832;9.126;2024-01-10T14:32:33;11.73;;;7.83;;
19107;SDS011;9686;48.832;9.126;2024-01-10T14:34:58;14.43;;;9.90;;
19107;SDS011;9686;48.832;9.126;2024-01-10T14:37:24;15.73;;;9.13;;
19107;SDS011;9686;48.832;9.126;2024-01-10T14:39:49;19.30;;;10.03;;
19107;SDS011;9686;48.832;9.126;2024-01-10T14:42:16;10.97;;;7.40;;
19107;SDS011;9686;48.832;9.126;2024-01-10T14:44:42;10.63;;;8.70;;
19107;SDS011;9686;48.832;9.126;2024-01-10T14:47:08;12.10;;;7.67;;
19107;SDS011;9686;48.832;9.126;2024-01-10T14:49:33;11.53;;;8.47;;
19107;SDS011;9686;48.832;9.126;2024-01-10T14:51:58;12.40;;;8.60;;
19107;SDS011;9686;48.832;9.126;2024-01-10T14:54:24;12.53;;;9.53;;
19107;SDS011;9686;48.832;9.126;2024-01-10T14:56:49;9.90;;;7.70;;
19107;SDS011;9686;48.832;9.126;2024-01-10T14:59:16;14.03;;;7.97;;
19107;SDS011;9686;48.832;9.126;2024-01-10T15:01:45;13.47;;;7.83;;
19107;SDS011;9686;48.832;9.126;2024-01-10T15:04:11;10.10;;;9.03;;
19107;SDS011;9686;48.832;9.126;2024-01-10T15:06:44;11.00;;;8.93;;